Time;durP1;ratioP1;P1;durP2;ratioP2;P2;SDS_P1;SDS_P2;PMS_P1;PMS_P2;Temp;Humidity;BMP_temperature;BMP_pressure;BME280_temperature;BME280_humidity;BME280_pressure;Samples;Min_cycle;Max_cycle;Signal;HPM_P1;HPM_P2
2021/04/11 00:01:41;;;;;;;6.10;5.60;;;10.40;60.90;;;;;;5068948;28;20540;-85
2021/04/11 00:04:11;;;;;;;8.50;6.03;;;10.40;61.10;;;;;;5055542;28;20462;-85
2021/04/11 00:06:40;;;;;;;6.80;6.10;;;10.30;61.10;;;;;;5045144;28;20495;-87
2021/04/11 00:09:07;;;;;;;7.47;6.77;;;10.30;61.30;;;;;;5058702;28;20483;-85
2021/04/11 00:11:33;;;;;;;7.40;5.63;;;10.30;61.40;;;;;;5053269;28;20474;-85
2021/04/11 00:14:00;;;;;;;6.43;5.83;;;10.20;61.50;;;;;;5062885;28;20478;-85
2021/04/11 00:16:27;;;;;;;6.53;5.60;;;10.20;61.60;;;;;;5055519;28;20434;-86
2021/04/11 00:18:55;;;;;;;6.80;6.13;;;10.20;61.70;;;;;;5060552;28;20466;-85
2021/04/11 00:21:22;;;;;;;8.00;5.93;;;10.20;61.70;;;;;;5048667;28;20479;-84
2021/04/11 00:23:48;;;;;;;7.57;6.17;;;10.20;61.80;;;;;;5068666;28;20446;-85
2021/04/11 00:26:16;;;;;;;9.97;6.70;;;10.20;61.90;;;;;;5062043;28;20450;-86
2021/04/11 00:28:43;;;;;;;7.23;6.53;;;10.20;62.20;;;;;;5064756;28;20453;-85
2021/04/11 00:31:10;;;;;;;7.97;6.37;;;10.20;61.80;;;;;;5061633;28;20461;-86
2021/04/11 00:33:39;;;;;;;8.10;6.43;;;10.10;61.90;;;;;;5059190;28;20468;-87
2021/04/11 00:36:09;;;;;;;8.40;6.80;;;10.10;62.00;;;;;;5044992;28;20460;-86
2021/04/11 00:38:36;;;;;;;7.07;6.40;;;10.00;61.90;;;;;;5071812;28;20489;-85
2021/04/11 00:41:10;;;;;;;9.97;7.30;;;10.10;62.00;;;;;;5073207;28;20438;-86
2021/04/11 00:43:38;;;;;;;8.70;5.97;;;10.10;61.90;;;;;;5076980;28;20449;-85
2021/04/11 00:46:16;;;;;;;6.33;5.80;;;10.00;61.70;;;;;;5065620;28;20442;-85
2021/04/11 00:48:43;;;;;;;6.70;6.07;;;10.00;61.80;;;;;;5050445;28;20769;-86
2021/04/11 00:51:14;;;;;;;9.33;6.60;;;10.00;61.80;;;;;;5068080;28;20457;-86
2021/04/11 00:53:44;;;;;;;7.00;6.30;;;10.00;61.80;;;;;;5066347;28;21264;-87
2021/04/11 00:56:13;;;;;;;7.03;6.40;;;10.00;61.90;;;;;;5047841;28;20452;-85
2021/04/11 00:58:41;;;;;;;9.73;7.27;;;10.00;62.00;;;;;;5063496;28;20490;-85
2021/04/11 01:01:08;;;;;;;9.70;6.77;;;10.00;62.00;;;;;;5061858;28;20472;-86
2021/04/11 01:03:40;;;;;;;7.40;6.60;;;10.00;62.00;;;;;;5040777;28;20500;-86
2021/04/11 01:06:15;;;;;;;7.90;6.10;;;10.00;62.10;;;;;;5057521;28;20453;-85
2021/04/11 01:08:46;;;;;;;8.77;7.17;;;10.00;62.10;;;;;;5056940;28;20446;-83
2021/04/11 01:11:15;;;;;;;8.80;6.27;;;10.00;62.30;;;;;;5057509;28;20539;-85
2021/04/11 01:13:45;;;;;;;8.07;6.23;;;9.90;63.30;;;;;;5054205;28;20541;-85
2021/04/11 01:16:14;;;;;;;10.00;6.70;;;9.90;63.50;;;;;;5074098;28;20464;-86
2021/04/11 01:18:41;;;;;;;7.63;7.00;;;9.90;63.60;;;;;;5076516;28;20483;-84
2021/04/11 01:21:14;;;;;;;10.00;6.20;;;9.80;63.60;;;;;;5068273;28;20468;-85
2021/04/11 01:23:48;;;;;;;7.57;6.87;;;9.90;63.70;;;;;;5067848;28;20434;-85
2021/04/11 01:26:20;;;;;;;7.47;6.73;;;9.80;63.70;;;;;;5042853;28;20454;-85
2021/04/11 01:28:49;;;;;;;9.03;6.77;;;9.80;63.70;;;;;;5065798;28;20474;-85
2021/04/11 01:31:17;;;;;;;7.23;5.97;;;9.80;63.70;;;;;;5070616;28;20958;-84
2021/04/11 01:33:45;;;;;;;11.60;6.67;;;9.80;63.70;;;;;;5074144;28;20446;-86
2021/04/11 01:36:14;;;;;;;7.27;6.50;;;9.80;63.80;;;;;;5083875;28;20457;-84
2021/04/11 01:38:44;;;;;;;14.67;6.80;;;9.80;63.70;;;;;;5068492;28;20437;-85
2021/04/11 01:41:21;;;;;;;8.80;6.40;;;9.80;63.80;;;;;;5062155;28;20487;-86
2021/04/11 01:43:53;;;;;;;9.77;6.27;;;9.80;63.70;;;;;;5061897;28;20449;-86
2021/04/11 01:46:22;;;;;;;7.00;6.30;;;9.80;63.50;;;;;;5044564;28;20962;-85
2021/04/11 01:48:49;;;;;;;7.20;6.50;;;9.80;63.50;;;;;;5056051;28;20485;-85
2021/04/11 01:51:20;;;;;;;8.73;6.13;;;9.80;63.50;;;;;;5045464;28;20460;-85
2021/04/11 01:53:48;;;;;;;6.60;5.90;;;9.70;63.40;;;;;;5065966;28;21254;-85
2021/04/11 01:56:19;;;;;;;7.10;6.40;;;9.80;63.30;;;;;;5049505;28;21018;-85
2021/04/11 01:58:46;;;;;;;7.20;6.50;;;9.80;63.30;;;;;;5058498;28;20795;-85
2021/04/11 02:01:20;;;;;;;7.30;6.57;;;9.80;63.10;;;;;;5055700;28;20454;-85
2021/04/11 02:03:51;;;;;;;9.83;6.90;;;9.80;63.10;;;;;;5054863;28;20448;-85
2021/04/11 02:06:18;;;;;;;7.00;6.30;;;9.80;63.10;;;;;;5053300;28;20446;-85
2021/04/11 02:08:49;;;;;;;7.73;6.37;;;9.80;63.00;;;;;;5057021;28;20456;-85
2021/04/11 02:11:16;;;;;;;7.77;6.63;;;9.80;62.70;;;;;;5055777;28;20524;-85
2021/04/11 02:13:44;;;;;;;8.17;6.20;;;9.80;62.70;;;;;;5059835;28;20960;-86
2021/04/11 02:16:14;;;;;;;9.57;6.80;;;9.80;62.70;;;;;;5066601;28;20448;-85
2021/04/11 02:18:41;;;;;;;7.27;5.83;;;9.80;62.70;;;;;;5075144;28;20458;-86
2021/04/11 02:21:12;;;;;;;9.93;6.80;;;9.80;62.70;;;;;;5046316;28;20470;-87
2021/04/11 02:23:39;;;;;;;8.83;7.23;;;9.80;63.00;;;;;;5054614;28;20453;-86
2021/04/11 02:26:10;;;;;;;8.33;6.43;;;9.80;62.70;;;;;;5042418;28;20458;-85
2021/04/11 02:28:38;;;;;;;7.33;6.50;;;9.80;62.50;;;;;;5056991;28;20493;-85
2021/04/11 02:31:17;;;;;;;8.90;7.10;;;9.80;62.50;;;;;;5052319;28;20480;-86
2021/04/11 02:34:03;;;;;;;7.10;6.40;;;9.80;62.90;;;;;;5055903;28;20797;-85
2021/04/11 02:36:38;;;;;;;9.27;7.50;;;9.70;62.50;;;;;;5057198;28;20803;-85
2021/04/11 02:39:10;;;;;;;8.20;6.50;;;9.70;62.60;;;;;;5049235;28;20442;-85
2021/04/11 02:41:39;;;;;;;7.87;6.20;;;9.70;62.60;;;;;;5034955;28;20899;-84
2021/04/11 02:44:06;;;;;;;7.67;6.90;;;9.70;62.60;;;;;;5039961;28;20449;-84
2021/04/11 02:46:39;;;;;;;9.20;6.80;;;9.60;62.60;;;;;;5055328;28;20461;-85
2021/04/11 02:49:06;;;;;;;10.50;6.73;;;9.70;62.70;;;;;;5050058;28;20877;-85
2021/04/11 02:51:35;;;;;;;10.00;6.87;;;9.60;62.60;;;;;;5057400;28;20536;-84
2021/04/11 02:54:05;;;;;;;9.90;7.07;;;9.60;62.60;;;;;;5055902;28;20479;-85
2021/04/11 02:56:32;;;;;;;8.37;6.50;;;9.60;62.50;;;;;;5057718;28;20504;-86
2021/04/11 02:59:00;;;;;;;6.60;5.80;;;9.60;62.60;;;;;;5070112;28;20470;-86
2021/04/11 03:01:31;;;;;;;8.20;7.37;;;9.60;62.60;;;;;;5068187;28;20543;-86
2021/04/11 03:04:01;;;;;;;8.87;6.80;;;9.60;62.60;;;;;;5054613;28;20450;-86
2021/04/11 03:06:31;;;;;;;8.20;6.10;;;9.70;62.60;;;;;;5071013;28;20521;-85
2021/04/11 03:09:05;;;;;;;7.47;6.77;;;9.70;62.60;;;;;;5069336;28;21323;-85
2021/04/11 03:11:35;;;;;;;9.67;6.13;;;9.70;62.50;;;;;;5077592;28;20461;-84
2021/04/11 03:14:05;;;;;;;9.10;7.00;;;9.70;62.30;;;;;;5068310;28;20492;-85
2021/04/11 03:16:33;;;;;;;7.53;6.73;;;9.70;62.20;;;;;;5068056;28;20486;-85
2021/04/11 03:19:02;;;;;;;8.27;7.30;;;9.80;62.20;;;;;;5062267;28;20475;-85
2021/04/11 03:21:33;;;;;;;9.60;7.23;;;9.80;62.10;;;;;;5037818;28;20457;-85
2021/04/11 03:24:00;;;;;;;6.53;5.93;;;9.80;62.20;;;;;;5040595;28;20496;-84
2021/04/11 03:26:33;;;;;;;7.47;6.70;;;9.80;62.20;;;;;;5063485;28;20457;-84
2021/04/11 03:29:03;;;;;;;7.03;6.30;;;9.70;62.10;;;;;;5065525;28;20454;-84
2021/04/11 03:31:34;;;;;;;7.90;6.97;;;9.80;62.10;;;;;;5060623;28;20495;-84
2021/04/11 03:34:05;;;;;;;7.53;6.83;;;9.80;62.10;;;;;;5055569;28;20535;-85
2021/04/11 03:36:34;;;;;;;11.53;6.43;;;9.80;62.20;;;;;;5060790;28;20480;-85
2021/04/11 03:39:03;;;;;;;6.97;6.30;;;9.80;62.10;;;;;;5055848;28;20443;-85
2021/04/11 03:41:32;;;;;;;7.47;6.50;;;9.80;62.10;;;;;;5057466;28;20548;-85
2021/04/11 03:44:04;;;;;;;8.00;6.20;;;9.70;62.00;;;;;;5056465;28;20549;-85
2021/04/11 03:46:34;;;;;;;8.27;7.30;;;9.70;61.90;;;;;;5056901;28;20491;-85
2021/04/11 03:52:01;;;;;;;8.03;6.47;;;9.70;62.10;;;;;;5085104;28;20452;-86
2021/04/11 03:54:34;;;;;;;8.90;6.93;;;9.70;62.00;;;;;;5076813;28;20483;-87
2021/04/11 03:57:07;;;;;;;7.13;6.43;;;9.70;62.00;;;;;;5086777;28;20442;-85
2021/04/11 03:59:38;;;;;;;6.57;6.00;;;9.70;62.00;;;;;;5073987;28;20461;-84
2021/04/11 04:02:07;;;;;;;6.70;6.17;;;9.70;62.30;;;;;;5065129;28;20513;-84
2021/04/11 04:04:38;;;;;;;7.13;6.53;;;9.70;62.00;;;;;;5067999;28;20475;-85
2021/04/11 04:07:09;;;;;;;7.20;6.50;;;9.80;62.00;;;;;;5062443;28;20480;-85
2021/04/11 04:09:37;;;;;;;6.53;5.93;;;9.70;61.90;;;;;;5073504;28;20454;-85
2021/04/11 04:12:44;;;;;;;8.90;6.30;;;9.70;62.00;;;;;;5066258;28;20460;-84
2021/04/11 04:15:27;;;;;;;7.07;6.40;;;9.60;62.10;;;;;;5044107;28;20500;-85
2021/04/11 04:18:26;;;;;;;7.53;6.60;;;9.60;62.10;;;;;;5068211;28;20461;-85
2021/04/11 04:21:03;;;;;;;8.63;7.50;;;9.60;62.20;;;;;;5058936;28;20469;-86
2021/04/11 04:23:44;;;;;;;7.20;6.53;;;9.60;62.10;;;;;;5075295;28;20444;-84
2021/04/11 04:26:32;;;;;;;9.13;6.33;;;9.60;62.10;;;;;;5068058;28;20454;-84
2021/04/11 04:29:12;;;;;;;7.70;6.90;;;9.60;62.10;;;;;;5069637;28;20457;-84
2021/04/11 04:32:02;;;;;;;7.43;6.33;;;9.60;62.00;;;;;;5041906;28;20450;-85
2021/04/11 04:34:33;;;;;;;8.43;7.53;;;9.50;62.40;;;;;;5065010;28;20466;-85
2021/04/11 04:37:11;;;;;;;8.00;6.87;;;9.50;62.10;;;;;;5051790;28;20464;-85
2021/04/11 04:39:50;;;;;;;10.73;7.53;;;9.40;62.30;;;;;;5065687;28;20453;-84
2021/04/11 04:42:26;;;;;;;8.77;7.47;;;9.30;62.50;;;;;;5065260;28;20452;-86
2021/04/11 04:45:02;;;;;;;8.53;6.53;;;9.10;62.60;;;;;;5070527;28;20444;-85
2021/04/11 04:47:40;;;;;;;9.97;7.07;;;9.00;63.00;;;;;;5066783;28;20456;-86
2021/04/11 04:50:13;;;;;;;7.73;6.80;;;9.00;63.10;;;;;;5060899;28;20474;-85
2021/04/11 04:52:46;;;;;;;9.90;7.13;;;9.00;63.20;;;;;;5059026;28;20448;-86
2021/04/11 04:55:19;;;;;;;8.47;7.57;;;9.00;63.30;;;;;;5063953;28;20474;-85
2021/04/11 04:57:49;;;;;;;7.93;7.23;;;9.10;63.50;;;;;;5063076;28;20462;-85
2021/04/11 05:00:19;;;;;;;9.03;7.23;;;9.30;63.60;;;;;;5056689;28;20450;-85
2021/04/11 05:02:50;;;;;;;9.27;6.93;;;9.50;63.00;;;;;;5059787;28;20465;-86
2021/04/11 05:05:18;;;;;;;7.60;6.30;;;9.40;62.80;;;;;;5071781;28;20476;-85
2021/04/11 05:07:58;;;;;;;8.47;7.23;;;9.30;63.00;;;;;;5076542;28;20467;-86
2021/04/11 05:10:31;;;;;;;8.80;7.77;;;9.30;63.10;;;;;;5083555;28;20463;-84
2021/04/11 05:13:02;;;;;;;9.17;7.10;;;9.40;63.40;;;;;;5059607;28;20450;-86
2021/04/11 05:15:33;;;;;;;8.73;7.63;;;9.50;63.00;;;;;;5057899;28;20555;-85
2021/04/11 05:18:04;;;;;;;8.33;7.47;;;9.70;62.70;;;;;;5055151;28;20453;-86
2021/04/11 05:20:34;;;;;;;9.70;8.70;;;10.40;61.60;;;;;;5055301;28;20453;-85
2021/04/11 05:23:20;;;;;;;9.37;7.17;;;10.70;60.50;;;;;;5070461;28;20453;-85
2021/04/11 05:25:56;;;;;;;7.93;7.13;;;11.20;60.10;;;;;;5046934;28;20453;-85
2021/04/11 05:28:28;;;;;;;7.50;6.80;;;11.00;59.60;;;;;;5054492;28;20438;-86
2021/04/11 05:31:04;;;;;;;7.60;6.90;;;10.90;59.50;;;;;;5064336;28;20564;-86
2021/04/11 05:33:35;;;;;;;9.17;7.40;;;10.80;59.40;;;;;;5055697;28;20476;-86
2021/04/11 05:36:06;;;;;;;8.07;7.27;;;10.70;59.50;;;;;;5058329;28;20469;-87
2021/04/11 05:38:46;;;;;;;7.57;6.97;;;10.70;59.40;;;;;;5040616;28;20458;-86
2021/04/11 05:41:19;;;;;;;8.90;7.77;;;10.70;59.30;;;;;;5035756;28;20463;-87
2021/04/11 05:43:57;;;;;;;7.77;7.07;;;10.70;59.20;;;;;;5055120;28;20501;-86
2021/04/11 05:46:30;;;;;;;9.50;7.00;;;10.60;59.20;;;;;;5060065;28;20441;-86
2021/04/11 05:49:02;;;;;;;8.03;7.33;;;10.60;59.30;;;;;;5063281;28;20469;-87
2021/04/11 05:51:36;;;;;;;9.53;7.40;;;10.50;59.20;;;;;;5069387;28;20461;-87
2021/04/11 05:54:14;;;;;;;7.97;7.17;;;10.50;59.20;;;;;;5081379;28;20473;-87
2021/04/11 05:56:46;;;;;;;11.13;6.87;;;10.60;59.30;;;;;;5073428;28;20533;-86
2021/04/11 05:59:17;;;;;;;8.10;7.27;;;10.70;59.50;;;;;;5051086;28;20448;-86
2021/04/11 06:01:53;;;;;;;8.00;7.20;;;10.70;59.30;;;;;;5069569;28;20488;-86
2021/04/11 06:04:29;;;;;;;9.33;7.73;;;10.70;59.20;;;;;;5056061;28;20545;-85
2021/04/11 06:07:00;;;;;;;8.10;7.30;;;10.80;59.20;;;;;;5076201;28;20453;-86
2021/04/11 06:09:35;;;;;;;9.63;7.70;;;10.90;59.10;;;;;;5076667;28;20450;-86
2021/04/11 06:12:10;;;;;;;7.90;7.20;;;10.90;58.90;;;;;;5073879;28;20446;-86
2021/04/11 06:14:49;;;;;;;7.60;6.80;;;10.90;58.90;;;;;;5053387;28;20529;-86
2021/04/11 06:17:15;;;;;;;8.93;7.07;;;11.00;58.80;;;;;;5041527;28;20454;-88
2021/04/11 06:19:45;;;;;;;10.17;7.60;;;11.10;58.80;;;;;;5048483;28;20564;-84
2021/04/11 06:22:19;;;;;;;7.40;6.70;;;11.20;58.60;;;;;;5061338;28;20507;-85
2021/04/11 06:24:50;;;;;;;7.93;7.13;;;11.30;58.50;;;;;;5068375;28;20473;-83
2021/04/11 06:27:44;;;;;;;8.00;7.20;;;11.50;58.40;;;;;;5059073;28;20454;-83
2021/04/11 06:30:15;;;;;;;8.40;7.60;;;11.50;58.10;;;;;;5039214;28;20441;-83
2021/04/11 06:32:50;;;;;;;10.87;7.77;;;11.70;58.10;;;;;;5064074;28;20485;-83
2021/04/11 06:35:25;;;;;;;8.73;7.93;;;11.80;57.80;;;;;;5059941;28;22330;-82
2021/04/11 06:37:55;;;;;;;8.43;7.53;;;11.90;57.50;;;;;;5063409;28;20552;-84
2021/04/11 06:40:41;;;;;;;7.50;6.90;;;11.90;57.30;;;;;;5052637;28;20445;-84
2021/04/11 06:43:35;;;;;;;8.13;7.30;;;12.00;57.20;;;;;;5063567;28;20461;-83
2021/04/11 06:46:10;;;;;;;9.70;8.07;;;12.10;57.20;;;;;;5065635;28;20446;-83
2021/04/11 06:49:06;;;;;;;7.70;6.90;;;12.40;57.10;;;;;;5058717;28;20486;-82
2021/04/11 06:52:01;;;;;;;8.87;7.40;;;12.60;56.80;;;;;;5054386;28;20548;-84
2021/04/11 06:54:57;;;;;;;8.10;7.30;;;12.60;56.20;;;;;;5051093;28;20508;-83
2021/04/11 06:57:52;;;;;;;10.13;8.03;;;12.80;56.30;;;;;;5061420;28;20478;-83
2021/04/11 07:00:40;;;;;;;8.37;6.70;;;12.80;55.90;;;;;;5074431;28;20457;-84
2021/04/11 07:03:55;;;;;;;11.43;7.40;;;13.00;56.00;;;;;;5072701;28;20524;-85
2021/04/11 07:07:00;;;;;;;8.63;7.57;;;13.00;55.60;;;;;;5076670;28;20515;-84
2021/04/11 07:09:52;;;;;;;8.37;7.50;;;13.40;55.40;;;;;;5071760;28;20473;-83
2021/04/11 07:12:58;;;;;;;11.80;8.40;;;13.70;55.00;;;;;;5048565;28;20460;-83
2021/04/11 07:15:31;;;;;;;7.60;6.90;;;13.80;54.60;;;;;;5062724;28;20569;-84
2021/04/11 07:18:28;;;;;;;8.90;7.10;;;13.90;54.20;;;;;;5076455;28;20458;-84
2021/04/11 07:21:34;;;;;;;8.83;7.93;;;13.90;54.40;;;;;;5079111;28;20447;-83
2021/04/11 07:24:29;;;;;;;7.87;7.07;;;14.00;53.90;;;;;;5073976;28;20458;-84
2021/04/11 07:27:03;;;;;;;8.60;7.73;;;14.00;53.70;;;;;;5049436;28;20445;-83
2021/04/11 07:29:55;;;;;;;8.00;7.30;;;14.00;53.60;;;;;;5065187;28;20454;-84
2021/04/11 07:32:48;;;;;;;7.30;6.70;;;13.80;53.10;;;;;;5072898;28;20500;-84
2021/04/11 07:35:39;;;;;;;10.67;7.37;;;14.20;53.20;;;;;;5069529;28;20465;-84
2021/04/11 07:38:30;;;;;;;8.00;7.30;;;14.60;52.90;;;;;;5051153;28;20477;-84
2021/04/11 07:44:31;;;;;;;7.03;6.33;;;15.00;52.10;;;;;;5064409;28;20450;-84
2021/04/11 07:47:16;;;;;;;7.33;6.73;;;15.10;51.60;;;;;;5069658;28;20450;-84
2021/04/11 07:50:13;;;;;;;8.53;7.37;;;15.40;51.60;;;;;;5070861;28;20449;-81
2021/04/11 07:53:10;;;;;;;8.00;7.30;;;15.60;51.50;;;;;;5060200;28;20468;-81
2021/04/11 07:55:49;;;;;;;9.27;6.77;;;15.60;51.10;;;;;;5060703;28;20497;-83
2021/04/11 07:58:35;;;;;;;7.83;6.90;;;15.30;51.00;;;;;;5057769;28;20461;-82
2021/04/11 08:01:15;;;;;;;7.60;6.13;;;15.30;51.00;;;;;;5063554;28;20489;-82
2021/04/11 08:04:08;;;;;;;10.73;7.30;;;15.40;50.90;;;;;;5057493;28;20549;-82
2021/04/11 08:06:59;;;;;;;7.37;6.67;;;15.30;50.60;;;;;;5075567;28;20541;-82
2021/04/11 08:09:36;;;;;;;8.07;7.37;;;15.30;50.90;;;;;;5071072;28;20454;-81
2021/04/11 08:12:31;;;;;;;8.20;7.40;;;14.90;50.30;;;;;;5067627;28;20458;-82
2021/04/11 08:15:10;;;;;;;12.13;6.33;;;15.10;50.80;;;;;;5070307;28;20549;-83
2021/04/11 08:17:47;;;;;;;6.43;5.77;;;15.20;50.70;;;;;;5066340;28;20461;-80
2021/04/11 08:20:48;;;;;;;8.13;5.93;;;15.30;50.60;;;;;;5058140;28;20446;-80
2021/04/11 08:23:38;;;;;;;8.67;5.43;;;15.90;51.00;;;;;;5031679;28;20454;-80
2021/04/11 08:26:26;;;;;;;6.53;4.60;;;16.40;51.00;;;;;;5061671;28;20441;-81
2021/04/11 08:29:31;;;;;;;4.90;4.50;;;16.80;51.00;;;;;;5057268;28;20529;-79
2021/04/11 08:32:19;;;;;;;5.07;4.60;;;17.40;50.20;;;;;;5058064;28;20450;-79
2021/04/11 08:35:19;;;;;;;7.70;4.50;;;17.70;49.40;;;;;;5061252;28;20470;-80
2021/04/11 08:38:39;;;;;;;6.57;4.30;;;17.80;49.00;;;;;;5055554;28;20493;-81
2021/04/11 08:41:34;;;;;;;4.07;3.67;;;18.20;47.20;;;;;;4989382;28;20960;-80
2021/04/11 08:44:11;;;;;;;4.03;3.53;;;18.70;47.80;;;;;;5004173;28;20470;-79
2021/04/11 08:46:53;;;;;;;4.90;4.40;;;19.10;46.70;;;;;;5053197;28;20456;-81
2021/04/11 08:49:24;;;;;;;3.33;3.03;;;19.30;46.20;;;;;;5074093;28;20459;-80
2021/04/11 08:52:01;;;;;;;4.93;3.17;;;19.00;46.00;;;;;;5063675;28;21324;-80
2021/04/11 08:54:47;;;;;;;5.27;3.50;;;18.50;45.30;;;;;;5060008;28;20612;-80
2021/04/11 08:57:33;;;;;;;7.10;2.80;;;19.10;46.50;;;;;;5056100;28;20499;-81
2021/04/11 09:00:13;;;;;;;4.70;3.20;;;19.00;45.20;;;;;;5060996;28;20941;-80
2021/04/11 09:03:18;;;;;;;4.70;3.23;;;19.00;45.60;;;;;;5051243;28;20454;-79
2021/04/11 09:05:55;;;;;;;3.73;3.20;;;19.20;45.70;;;;;;5015743;28;20453;-80
2021/04/11 09:08:30;;;;;;;2.80;2.50;;;19.20;45.50;;;;;;5060137;28;20449;-80
2021/04/11 09:11:09;;;;;;;5.23;3.23;;;18.70;45.00;;;;;;5060258;28;20803;-79
2021/04/11 09:13:50;;;;;;;3.33;2.40;;;18.70;45.60;;;;;;5052841;28;20450;-80
2021/04/11 09:16:26;;;;;;;3.33;2.33;;;18.70;44.70;;;;;;5054686;28;20484;-81
2021/04/11 09:19:13;;;;;;;3.00;2.70;;;18.50;44.60;;;;;;5054287;28;20465;-80
2021/04/11 09:25:14;;;;;;;3.90;1.70;;;18.60;45.40;;;;;;5060140;28;20474;-80
2021/04/11 09:28:14;;;;;;;2.03;1.83;;;18.40;44.40;;;;;;5068552;28;20502;-80
2021/04/11 09:31:11;;;;;;;1.90;1.57;;;18.50;44.30;;;;;;5066795;28;20473;-81
2021/04/11 09:33:54;;;;;;;2.93;1.80;;;18.80;44.20;;;;;;5056131;28;20490;-80
2021/04/11 09:36:27;;;;;;;8.33;2.63;;;18.80;44.20;;;;;;5062339;28;20474;-80
2021/04/11 09:39:11;;;;;;;3.47;2.27;;;18.80;44.10;;;;;;5064655;28;20449;-80
2021/04/11 09:42:09;;;;;;;4.13;2.00;;;18.80;43.90;;;;;;5058092;28;21071;-80
2021/04/11 09:45:01;;;;;;;2.63;1.80;;;18.80;43.90;;;;;;5062542;28;20482;-80
2021/04/11 09:47:53;;;;;;;4.63;2.70;;;18.60;44.10;;;;;;5063249;28;20447;-79
2021/04/11 09:50:29;;;;;;;3.67;2.33;;;18.70;44.10;;;;;;5066117;28;20465;-79
2021/04/11 09:53:22;;;;;;;4.03;2.70;;;19.00;44.00;;;;;;5057999;28;20452;-80
2021/04/11 09:56:00;;;;;;;5.37;2.87;;;18.90;44.10;;;;;;5058344;28;20480;-79
2021/04/11 09:58:39;;;;;;;3.27;2.00;;;19.00;44.40;;;;;;5053880;28;20956;-78
2021/04/11 10:01:16;;;;;;;2.00;1.90;;;19.20;44.40;;;;;;5049536;28;20458;-80
2021/04/11 10:04:07;;;;;;;5.30;4.67;;;19.30;44.20;;;;;;5057897;28;21005;-79
2021/04/11 10:07:03;;;;;;;2.37;2.17;;;19.30;44.10;;;;;;5047584;28;20459;-79
2021/04/11 10:09:59;;;;;;;3.20;1.77;;;19.60;44.10;;;;;;5057837;28;20447;-79
2021/04/11 10:12:56;;;;;;;2.37;2.27;;;19.50;43.70;;;;;;5049806;28;20480;-80
2021/04/11 10:15:29;;;;;;;2.83;2.00;;;19.70;43.80;;;;;;5047828;28;20491;-80
2021/04/11 10:18:32;;;;;;;1.97;1.60;;;19.70;43.50;;;;;;5052545;28;20458;-79
2021/04/11 10:21:08;;;;;;;2.20;1.70;;;20.10;43.70;;;;;;5055687;28;20446;-79
2021/04/11 10:23:45;;;;;;;1.77;1.67;;;19.70;43.10;;;;;;5077183;28;20450;-80
2021/04/11 10:26:17;;;;;;;2.17;1.97;;;19.50;43.50;;;;;;5063292;28;20465;-80
2021/04/11 10:28:50;;;;;;;2.07;1.87;;;19.50;43.50;;;;;;5060268;28;20472;-80
2021/04/11 10:31:23;;;;;;;2.03;1.87;;;19.90;43.80;;;;;;5056636;28;20525;-80
2021/04/11 10:34:00;;;;;;;6.10;1.97;;;20.40;43.80;;;;;;5063130;28;20437;-79
2021/04/11 10:36:38;;;;;;;3.57;1.80;;;20.50;43.10;;;;;;5056899;28;20473;-80
2021/04/11 10:39:13;;;;;;;2.37;2.07;;;20.80;43.40;;;;;;5056821;28;21232;-79
2021/04/11 10:41:54;;;;;;;2.03;1.83;;;20.80;43.00;;;;;;5039523;28;20465;-80
2021/04/11 10:44:36;;;;;;;5.60;1.97;;;20.80;43.10;;;;;;5061686;28;20479;-80
2021/04/11 10:47:21;;;;;;;3.97;1.67;;;20.70;43.00;;;;;;5058842;28;20456;-82
2021/04/11 10:49:57;;;;;;;5.80;1.80;;;20.70;43.10;;;;;;5059905;28;20514;-80
2021/04/11 10:52:48;;;;;;;3.00;1.83;;;20.40;43.00;;;;;;5055267;28;20445;-80
2021/04/11 10:55:30;;;;;;;2.53;2.03;;;21.00;43.20;;;;;;5060273;28;20525;-82
2021/04/11 10:58:34;;;;;;;12.27;3.57;;;21.10;43.00;;;;;;5056789;28;20457;-79
2021/04/11 11:01:11;;;;;;;2.30;1.93;;;21.60;43.30;;;;;;5056662;28;20511;-81
2021/04/11 11:03:58;;;;;;;1.73;1.63;;;21.80;42.70;;;;;;5064141;28;20512;-82
2021/04/11 11:06:45;;;;;;;2.50;1.77;;;22.00;42.20;;;;;;5066524;28;20461;-79
2021/04/11 11:09:24;;;;;;;5.13;1.50;;;22.10;42.40;;;;;;5052285;28;20488;-79
2021/04/11 11:12:21;;;;;;;6.40;3.10;;;22.40;42.10;;;;;;5050295;28;20506;-81
2021/04/11 11:15:18;;;;;;;1.73;1.60;;;22.50;42.20;;;;;;5063035;28;20461;-80
2021/04/11 11:18:16;;;;;;;2.53;1.53;;;22.70;41.70;;;;;;5063970;28;20481;-81
2021/04/11 11:21:09;;;;;;;1.47;1.33;;;22.90;41.60;;;;;;5067970;28;20454;-81
2021/04/11 11:23:52;;;;;;;2.33;1.63;;;22.00;41.30;;;;;;5050725;28;20507;-81
2021/04/11 11:26:40;;;;;;;3.73;3.37;;;21.60;41.30;;;;;;5059405;28;20499;-82
2021/04/11 11:29:33;;;;;;;3.10;2.27;;;21.80;41.60;;;;;;5059162;28;20449;-80
2021/04/11 11:32:05;;;;;;;4.30;2.30;;;21.80;41.60;;;;;;5066139;28;20491;-81
2021/04/11 11:34:40;;;;;;;2.33;2.10;;;21.90;42.20;;;;;;5057888;28;20469;-82
2021/04/11 11:37:24;;;;;;;4.03;2.00;;;22.10;41.60;;;;;;5060506;28;20523;-81
2021/04/11 11:40:00;;;;;;;2.30;2.10;;;21.60;41.40;;;;;;5061525;28;20464;-81
2021/04/11 11:42:34;;;;;;;2.03;1.53;;;21.70;41.70;;;;;;5061228;28;20469;-81
2021/04/11 11:45:11;;;;;;;5.70;2.73;;;21.80;41.60;;;;;;5062674;28;20456;-81
2021/04/11 11:47:48;;;;;;;5.80;2.33;;;21.80;41.80;;;;;;5064717;28;20957;-82
2021/04/11 11:50:20;;;;;;;7.30;2.57;;;22.20;42.50;;;;;;5069786;28;20461;-82
2021/04/11 11:52:50;;;;;;;3.70;2.10;;;22.80;42.20;;;;;;5066163;28;20513;-81
2021/04/11 11:55:21;;;;;;;2.43;2.10;;;22.90;41.90;;;;;;5068642;28;20499;-81
2021/04/11 11:57:58;;;;;;;2.47;1.90;;;22.70;41.80;;;;;;5069796;28;20493;-82
2021/04/11 12:00:29;;;;;;;4.07;2.30;;;22.70;41.80;;;;;;5063297;28;20466;-82
2021/04/11 12:03:06;;;;;;;3.20;1.87;;;22.80;41.60;;;;;;5070895;28;20473;-83
2021/04/11 12:05:40;;;;;;;4.17;2.40;;;22.80;41.40;;;;;;5073073;28;20931;-82
2021/04/11 12:08:14;;;;;;;2.40;2.07;;;22.70;40.70;;;;;;5063371;28;20460;-81
2021/04/11 12:10:47;;;;;;;2.00;1.83;;;22.20;41.20;;;;;;5060407;28;20465;-82
2021/04/11 12:13:28;;;;;;;2.23;2.13;;;22.20;41.50;;;;;;5049064;28;20449;-81
2021/04/11 12:16:00;;;;;;;2.07;1.97;;;22.60;41.60;;;;;;5059600;28;20896;-81
2021/04/11 12:18:30;;;;;;;2.90;2.30;;;22.70;41.30;;;;;;5058362;28;20460;-81
2021/04/11 12:21:05;;;;;;;2.30;2.17;;;23.00;41.60;;;;;;5061326;28;20458;-81
2021/04/11 12:23:38;;;;;;;2.70;2.17;;;23.30;41.10;;;;;;5060736;28;20533;-80
2021/04/11 12:26:11;;;;;;;4.03;2.60;;;23.20;40.90;;;;;;5063262;28;20454;-82
2021/04/11 12:28:40;;;;;;;3.13;2.30;;;23.10;41.20;;;;;;5062996;28;20446;-81
2021/04/11 12:31:25;;;;;;;2.50;2.30;;;23.10;40.90;;;;;;5064593;28;20457;-80
2021/04/11 12:34:00;;;;;;;1.50;1.40;;;22.40;40.60;;;;;;5070693;28;20575;-81
2021/04/11 12:36:37;;;;;;;3.07;1.30;;;22.40;40.00;;;;;;5074320;28;20469;-81
2021/04/11 12:39:07;;;;;;;3.57;2.20;;;22.50;39.90;;;;;;5069080;28;20453;-81
2021/04/11 12:41:43;;;;;;;2.27;1.80;;;22.80;39.90;;;;;;5064312;28;20467;-80
2021/04/11 12:44:18;;;;;;;1.90;1.80;;;22.50;39.40;;;;;;5063336;28;20456;-81
2021/04/11 12:46:59;;;;;;;3.10;2.23;;;23.10;40.30;;;;;;5059634;28;20466;-80
2021/04/11 12:49:30;;;;;;;1.50;1.40;;;23.20;39.30;;;;;;5069539;28;20448;-82
2021/04/11 12:52:04;;;;;;;1.77;1.67;;;23.80;39.20;;;;;;5068425;28;20454;-81
2021/04/11 12:54:35;;;;;;;2.90;2.10;;;23.90;39.00;;;;;;5068259;28;20481;-81
2021/04/11 12:57:04;;;;;;;1.50;1.33;;;23.80;39.70;;;;;;5062270;28;20491;-81
2021/04/11 12:59:39;;;;;;;5.67;2.17;;;23.30;39.40;;;;;;5062098;28;20442;-82
2021/04/11 13:02:12;;;;;;;1.77;1.67;;;23.10;39.50;;;;;;5060909;28;20453;-82
2021/04/11 13:04:41;;;;;;;2.00;1.60;;;23.20;39.50;;;;;;5058009;28;20450;-81
2021/04/11 13:07:14;;;;;;;1.63;1.43;;;22.60;39.50;;;;;;5060390;28;20726;-82
2021/04/11 13:10:04;;;;;;;1.30;1.20;;;22.90;39.70;;;;;;5069083;28;20454;-82
2021/04/11 13:12:39;;;;;;;2.00;1.37;;;23.50;39.50;;;;;;5061878;28;20477;-82
2021/04/11 13:15:12;;;;;;;3.37;2.10;;;23.90;39.10;;;;;;5065033;28;20500;-82
2021/04/11 13:17:46;;;;;;;2.33;1.40;;;24.00;39.40;;;;;;5060301;28;20511;-81
2021/04/11 13:20:20;;;;;;;3.00;1.40;;;23.90;39.10;;;;;;5060994;28;20507;-82
2021/04/11 13:22:54;;;;;;;2.07;1.80;;;23.70;39.30;;;;;;5054540;28;20459;-80
2021/04/11 13:25:31;;;;;;;1.33;1.00;;;23.40;39.20;;;;;;5055403;28;20480;-80
2021/04/11 13:28:07;;;;;;;1.67;1.40;;;23.20;39.20;;;;;;5052997;28;20446;-81
2021/04/11 13:30:40;;;;;;;2.90;1.80;;;23.40;38.80;;;;;;5056307;28;20450;-81
2021/04/11 13:33:15;;;;;;;1.17;0.93;;;23.80;38.90;;;;;;5049502;28;21091;-81
2021/04/11 13:35:52;;;;;;;3.27;1.27;;;23.70;38.60;;;;;;5059655;28;20567;-80
2021/04/11 13:38:22;;;;;;;2.10;1.70;;;23.60;39.10;;;;;;5049890;28;20446;-81
2021/04/11 13:40:50;;;;;;;3.13;1.60;;;23.60;38.70;;;;;;5058142;28;20450;-81
2021/04/11 13:43:27;;;;;;;1.63;1.53;;;23.70;39.10;;;;;;5056394;28;20442;-80
2021/04/11 13:46:09;;;;;;;1.57;1.20;;;23.70;38.70;;;;;;5059243;28;20945;-80
2021/04/11 13:48:50;;;;;;;1.70;1.60;;;23.70;38.60;;;;;;5053954;28;20454;-82
2021/04/11 13:51:28;;;;;;;1.63;1.37;;;22.90;38.60;;;;;;5066860;28;20453;-80
2021/04/11 13:54:03;;;;;;;3.20;1.40;;;22.60;38.70;;;;;;5056946;28;20449;-81